sensor_id;sensor_type;location;lat;lon;timestamp;temperature;humidity
35246;DHT22;21379;50.962;6.960;2022-12-24T00:01:28;11.90;99.90
35246;DHT22;21379;50.962;6.960;2022-12-24T00:03:55;11.90;99.90
35246;DHT22;21379;50.962;6.960;2022-12-24T00:06:23;11.80;99.90
35246;DHT22;21379;50.962;6.960;2022-12-24T00:08:50;11.80;99.90
35246;DHT22;21379;50.962;6.960;2022-12-24T00:11:17;11.80;99.90
35246;DHT22;21379;50.962;6.960;2022-12-24T00:13:45;11.70;99.90
35246;DHT22;21379;50.962;6.960;2022-12-24T00:16:12;11.70;99.90
35246;DHT22;21379;50.962;6.960;2022-12-24T00:18:40;11.60;99.90
35246;DHT22;21379;50.962;6.960;2022-12-24T00:21:06;11.50;99.90
35246;DHT22;21379;50.962;6.960;2022-12-24T00:23:33;11.60;99.90
35246;DHT22;21379;50.962;6.960;2022-12-24T00:26:00;11.50;99.90
35246;DHT22;21379;50.962;6.960;2022-12-24T00:28:27;11.60;99.90
35246;DHT22;21379;50.962;6.960;2022-12-24T00:30:54;11.50;99.90
35246;DHT22;21379;50.962;6.960;2022-12-24T00:33:20;11.50;99.90
35246;DHT22;21379;50.962;6.960;2022-12-24T00:35:50;11.50;99.90
35246;DHT22;21379;50.962;6.960;2022-12-24T00:38:17;11.50;99.90
35246;DHT22;21379;50.962;6.960;2022-12-24T00:40:43;11.50;99.90
35246;DHT22;21379;50.962;6.960;2022-12-24T00:43:10;11.50;99.90
35246;DHT22;21379;50.962;6.960;2022-12-24T00:45:37;11.50;99.90
35246;DHT22;21379;50.962;6.960;2022-12-24T00:48:04;11.60;99.90
35246;DHT22;21379;50.962;6.960;2022-12-24T00:50:31;11.60;99.90
35246;DHT22;21379;50.962;6.960;2022-12-24T00:52:59;11.60;99.90
35246;DHT22;21379;50.962;6.960;2022-12-24T00:55:26;11.60;99.90
35246;DHT22;21379;50.962;6.960;2022-12-24T00:57:53;11.70;99.90
35246;DHT22;21379;50.962;6.960;2022-12-24T01:00:20;11.60;99.90
35246;DHT22;21379;50.962;6.960;2022-12-24T01:02:46;11.70;99.90
35246;DHT22;21379;50.962;6.960;2022-12-24T01:05:13;11.60;99.90
35246;DHT22;21379;50.962;6.960;2022-12-24T01:07:42;11.60;99.90
35246;DHT22;21379;50.962;6.960;2022-12-24T01:10:12;11.70;99.90
35246;DHT22;21379;50.962;6.960;2022-12-24T01:12:39;11.60;99.90
35246;DHT22;21379;50.962;6.960;2022-12-24T01:15:07;11.60;99.90
35246;DHT22;21379;50.962;6.960;2022-12-24T01:17:35;11.70;99.90
35246;DHT22;21379;50.962;6.960;2022-12-24T01:20:04;11.70;99.90
35246;DHT22;21379;50.962;6.960;2022-12-24T01:22:31;11.70;99.90
35246;DHT22;21379;50.962;6.960;2022-12-24T01:24:58;11.70;99.90
35246;DHT22;21379;50.962;6.960;2022-12-24T01:27:26;11.70;99.90
35246;DHT22;21379;50.962;6.960;2022-12-24T01:29:53;11.70;99.90
35246;DHT22;21379;50.962;6.960;2022-12-24T01:32:20;11.70;99.90
35246;DHT22;21379;50.962;6.960;2022-12-24T01:34:46;11.70;99.90
35246;DHT22;21379;50.962;6.960;2022-12-24T01:37:13;11.70;99.90
35246;DHT22;21379;50.962;6.960;2022-12-24T01:39:40;11.80;99.90
35246;DHT22;21379;50.962;6.960;2022-12-24T01:42:17;11.80;99.90
35246;DHT22;21379;50.962;6.960;2022-12-24T01:45:37;11.80;99.90
35246;DHT22;21379;50.962;6.960;2022-12-24T01:48:13;11.80;99.90
35246;DHT22;21379;50.962;6.960;2022-12-24T01:50:41;11.80;99.90
35246;DHT22;21379;50.962;6.960;2022-12-24T01:53:09;11.80;99.90
35246;DHT22;21379;50.962;6.960;2022-12-24T01:55:36;11.70;99.90
35246;DHT22;21379;50.962;6.960;2022-12-24T01:58:04;11.70;99.90
35246;DHT22;21379;50.962;6.960;2022-12-24T02:00:33;11.70;99.90
35246;DHT22;21379;50.962;6.960;2022-12-24T02:03:01;11.60;99.90
35246;DHT22;21379;50.962;6.960;2022-12-24T02:05:31;11.60;99.90
35246;DHT22;21379;50.962;6.960;2022-12-24T02:08:02;11.50;99.90
35246;DHT22;21379;50.962;6.960;2022-12-24T02:10:29;11.50;99.90
35246;DHT22;21379;50.962;6.960;2022-12-24T02:12:57;11.50;99.90
35246;DHT22;21379;50.962;6.960;2022-12-24T02:15:25;11.50;99.90
35246;DHT22;21379;50.962;6.960;2022-12-24T02:18:02;11.50;99.90
35246;DHT22;21379;50.962;6.960;2022-12-24T02:26:59;11.40;99.90
35246;DHT22;21379;50.962;6.960;2022-12-24T02:32:32;11.30;99.90
35246;DHT22;21379;50.962;6.960;2022-12-24T02:35:04;11.30;99.90
35246;DHT22;21379;50.962;6.960;2022-12-24T02:37:36;11.30;99.90
35246;DHT22;21379;50.962;6.960;2022-12-24T02:40:09;11.30;99.90
35246;DHT22;21379;50.962;6.960;2022-12-24T02:42:39;11.30;99.90
35246;DHT22;21379;50.962;6.960;2022-12-24T02:45:08;11.30;99.90
35246;DHT22;21379;50.962;6.960;2022-12-24T02:47:38;11.30;99.90
35246;DHT22;21379;50.962;6.960;2022-12-24T02:50:08;11.20;99.90
35246;DHT22;21379;50.962;6.960;2022-12-24T02:52:36;11.30;99.90
35246;DHT22;21379;50.962;6.960;2022-12-24T02:55:05;11.40;99.90
35246;DHT22;21379;50.962;6.960;2022-12-24T02:57:42;11.40;99.90
35246;DHT22;21379;50.962;6.960;2022-12-24T03:00:16;11.40;99.90
35246;DHT22;21379;50.962;6.960;2022-12-24T03:03:04;11.50;99.90
35246;DHT22;21379;50.962;6.960;2022-12-24T03:05:40;11.50;99.90
35246;DHT22;21379;50.962;6.960;2022-12-24T03:08:13;11.50;99.90
35246;DHT22;21379;50.962;6.960;2022-12-24T03:10:46;11.50;99.90
35246;DHT22;21379;50.962;6.960;2022-12-24T03:13:16;11.50;99.90
35246;DHT22;21379;50.962;6.960;2022-12-24T03:15:45;11.50;99.90
35246;DHT22;21379;50.962;6.960;2022-12-24T03:18:16;11.50;99.90
35246;DHT22;21379;50.962;6.960;2022-12-24T03:20:46;11.60;99.90
35246;DHT22;21379;50.962;6.960;2022-12-24T03:23:14;11.50;99.90
35246;DHT22;21379;50.962;6.960;2022-12-24T03:25:42;11.60;99.90
35246;DHT22;21379;50.962;6.960;2022-12-24T03:28:15;11.50;99.90
35246;DHT22;21379;50.962;6.960;2022-12-24T03:30:44;11.50;99.90
35246;DHT22;21379;50.962;6.960;2022-12-24T03:33:12;11.50;99.90
35246;DHT22;21379;50.962;6.960;2022-12-24T03:35:40;11.40;99.90
35246;DHT22;21379;50.962;6.960;2022-12-24T03:38:07;11.50;99.90
35246;DHT22;21379;50.962;6.960;2022-12-24T03:40:34;11.40;99.90
35246;DHT22;21379;50.962;6.960;2022-12-24T03:43:00;11.40;99.90
35246;DHT22;21379;50.962;6.960;2022-12-24T03:45:27;11.30;99.90
35246;DHT22;21379;50.962;6.960;2022-12-24T03:47:54;11.20;99.90
35246;DHT22;21379;50.962;6.960;2022-12-24T03:50:21;11.20;99.90
35246;DHT22;21379;50.962;6.960;2022-12-24T03:52:49;11.20;99.90
35246;DHT22;21379;50.962;6.960;2022-12-24T03:55:16;11.20;99.90
35246;DHT22;21379;50.962;6.960;2022-12-24T03:57:43;11.10;99.90
35246;DHT22;21379;50.962;6.960;2022-12-24T04:00:10;11.00;99.90
35246;DHT22;21379;50.962;6.960;2022-12-24T04:02:37;10.90;99.90
35246;DHT22;21379;50.962;6.960;2022-12-24T04:05:06;10.90;99.90
35246;DHT22;21379;50.962;6.960;2022-12-24T04:07:33;10.80;99.90
35246;DHT22;21379;50.962;6.960;2022-12-24T04:10:01;10.70;99.90
35246;DHT22;21379;50.962;6.960;2022-12-24T04:12:28;10.70;99.90
35246;DHT22;21379;50.962;6.960;2022-12-24T04:14:55;10.70;99.90
35246;DHT22;21379;50.962;6.960;2022-12-24T04:17:22;10.70;99.90
35246;DHT22;21379;50.962;6.960;2022-12-24T04:19:48;10.70;99.90
35246;DHT22;21379;50.962;6.960;2022-12-24T04:22:15;10.70;99.90
35246;DHT22;21379;50.962;6.960;2022-12-24T04:24:42;10.70;99.90
35246;DHT22;21379;50.962;6.960;2022-12-24T04:27:12;10.60;99.90
35246;DHT22;21379;50.962;6.960;2022-12-24T04:29:39;10.60;99.90
35246;DHT22;21379;50.962;6.960;2022-12-24T04:32:06;10.60;99.90
35246;DHT22;21379;50.962;6.960;2022-12-24T04:34:34;10.60;99.90
35246;DHT22;21379;50.962;6.960;2022-12-24T04:37:01;10.60;99.90
35246;DHT22;21379;50.962;6.960;2022-12-24T04:39:28;10.60;99.90
35246;DHT22;21379;50.962;6.960;2022-12-24T04:41:55;10.60;99.90
35246;DHT22;21379;50.962;6.960;2022-12-24T04:44:23;10.60;99.90
35246;DHT22;21379;50.962;6.960;2022-12-24T04:46:50;10.60;99.90
35246;DHT22;21379;50.962;6.960;2022-12-24T04:49:17;10.60;99.90
35246;DHT22;21379;50.962;6.960;2022-12-24T04:51:43;10.60;99.90
35246;DHT22;21379;50.962;6.960;2022-12-24T04:54:10;10.60;99.90
35246;DHT22;21379;50.962;6.960;2022-12-24T04:56:37;10.60;99.90
35246;DHT22;21379;50.962;6.960;2022-12-24T04:59:04;10.50;99.90
35246;DHT22;21379;50.962;6.960;2022-12-24T05:01:32;10.50;99.90
35246;DHT22;21379;50.962;6.960;2022-12-24T05:03:59;10.50;99.90
35246;DHT22;21379;50.962;6.960;2022-12-24T05:06:28;10.50;99.90
35246;DHT22;21379;50.962;6.960;2022-12-24T05:08:56;10.40;99.90
35246;DHT22;21379;50.962;6.960;2022-12-24T05:11:24;10.40;99.90
35246;DHT22;21379;50.962;6.960;2022-12-24T05:13:51;10.40;99.90
35246;DHT22;21379;50.962;6.960;2022-12-24T05:16:19;10.40;99.90
35246;DHT22;21379;50.962;6.960;2022-12-24T05:18:48;10.30;99.90
35246;DHT22;21379;50.962;6.960;2022-12-24T05:21:16;10.40;99.90
35246;DHT22;21379;50.962;6.960;2022-12-24T05:23:43;10.40;99.90
35246;DHT22;21379;50.962;6.960;2022-12-24T05:26:30;10.40;99.90
35246;DHT22;21379;50.962;6.960;2022-12-24T05:28:59;10.40;99.90
35246;DHT22;21379;50.962;6.960;2022-12-24T05:31:28;10.30;99.90
35246;DHT22;21379;50.962;6.960;2022-12-24T05:33:56;10.30;99.90
35246;DHT22;21379;50.962;6.960;2022-12-24T05:36:23;10.40;99.90
35246;DHT22;21379;50.962;6.960;2022-12-24T05:38:50;10.40;99.90
35246;DHT22;21379;50.962;6.960;2022-12-24T05:41:17;10.30;99.90
35246;DHT22;21379;50.962;6.960;2022-12-24T05:43:44;10.30;99.90
35246;DHT22;21379;50.962;6.960;2022-12-24T05:46:12;10.30;99.90
35246;DHT22;21379;50.962;6.960;2022-12-24T05:48:39;10.20;99.90
35246;DHT22;21379;50.962;6.960;2022-12-24T05:51:09;10.30;99.90
35246;DHT22;21379;50.962;6.960;2022-12-24T05:53:37;10.30;99.90
35246;DHT22;21379;50.962;6.960;2022-12-24T05:56:04;10.30;99.90
35246;DHT22;21379;50.962;6.960;2022-12-24T05:58:32;10.30;99.90
35246;DHT22;21379;50.962;6.960;2022-12-24T06:01:00;10.30;99.90
35246;DHT22;21379;50.962;6.960;2022-12-24T06:03:27;10.30;99.90
35246;DHT22;21379;50.962;6.960;2022-12-24T06:05:59;10.30;99.90
35246;DHT22;21379;50.962;6.960;2022-12-24T06:08:27;10.40;99.90
35246;DHT22;21379;50.962;6.960;2022-12-24T06:10:55;10.40;99.90
35246;DHT22;21379;50.962;6.960;2022-12-24T06:13:22;10.40;99.90
35246;DHT22;21379;50.962;6.960;2022-12-24T06:15:49;10.50;99.90
35246;DHT22;21379;50.962;6.960;2022-12-24T06:18:16;10.50;99.90
35246;DHT22;21379;50.962;6.960;2022-12-24T06:20:43;10.50;99.90
35246;DHT22;21379;50.962;6.960;2022-12-24T06:23:10;10.40;99.90
35246;DHT22;21379;50.962;6.960;2022-12-24T06:25:38;10.40;99.90
35246;DHT22;21379;50.962;6.960;2022-12-24T06:28:05;10.40;99.90
35246;DHT22;21379;50.962;6.960;2022-12-24T06:30:31;10.40;99.90
35246;DHT22;21379;50.962;6.960;2022-12-24T06:32:58;10.40;99.90
35246;DHT22;21379;50.962;6.960;2022-12-24T06:35:25;10.40;99.90
35246;DHT22;21379;50.962;6.960;2022-12-24T06:37:52;10.40;99.90
35246;DHT22;21379;50.962;6.960;2022-12-24T06:40:19;10.40;99.90
35246;DHT22;21379;50.962;6.960;2022-12-24T06:42:47;10.30;99.90
35246;DHT22;21379;50.962;6.960;2022-12-24T06:45:13;10.50;99.90
35246;DHT22;21379;50.962;6.960;2022-12-24T06:47:40;10.40;99.90
35246;DHT22;21379;50.962;6.960;2022-12-24T06:50:07;10.40;99.90
35246;DHT22;21379;50.962;6.960;2022-12-24T06:52:34;10.30;99.90
35246;DHT22;21379;50.962;6.960;2022-12-24T06:55:01;10.30;99.90
35246;DHT22;21379;50.962;6.960;2022-12-24T06:57:28;10.20;99.90
35246;DHT22;21379;50.962;6.960;2022-12-24T06:59:57;10.30;99.90
35246;DHT22;21379;50.962;6.960;2022-12-24T07:02:24;10.30;99.90
35246;DHT22;21379;50.962;6.960;2022-12-24T07:04:51;10.30;99.90
35246;DHT22;21379;50.962;6.960;2022-12-24T07:07:18;10.40;99.90
35246;DHT22;21379;50.962;6.960;2022-12-24T07:09:44;10.40;99.90
35246;DHT22;21379;50.962;6.960;2022-12-24T07:12:11;10.40;99.90
35246;DHT22;21379;50.962;6.960;2022-12-24T07:14:38;10.40;99.90
35246;DHT22;21379;50.962;6.960;2022-12-24T07:17:06;10.50;99.90
35246;DHT22;21379;50.962;6.960;2022-12-24T07:19:33;10.60;99.90
35246;DHT22;21379;50.962;6.960;2022-12-24T07:22:00;10.50;99.90
35246;DHT22;21379;50.962;6.960;2022-12-24T07:24:27;10.50;99.90
35246;DHT22;21379;50.962;6.960;2022-12-24T07:26:54;10.60;99.90
35246;DHT22;21379;50.962;6.960;2022-12-24T07:29:20;10.60;99.90
35246;DHT22;21379;50.962;6.960;2022-12-24T07:31:47;10.70;99.90
35246;DHT22;21379;50.962;6.960;2022-12-24T07:34:15;10.70;99.90
35246;DHT22;21379;50.962;6.960;2022-12-24T07:36:42;10.80;99.90
35246;DHT22;21379;50.962;6.960;2022-12-24T07:39:09;10.80;99.90
35246;DHT22;21379;50.962;6.960;2022-12-24T07:41:36;10.80;99.90
35246;DHT22;21379;50.962;6.960;2022-12-24T07:44:03;10.70;99.90
35246;DHT22;21379;50.962;6.960;2022-12-24T07:46:29;10.70;99.90
35246;DHT22;21379;50.962;6.960;2022-12-24T07:48:56;10.80;99.90
35246;DHT22;21379;50.962;6.960;2022-12-24T07:51:24;10.80;99.90
35246;DHT22;21379;50.962;6.960;2022-12-24T07:53:51;10.80;99.90
35246;DHT22;21379;50.962;6.960;2022-12-24T07:56:18;10.70;99.90
35246;DHT22;21379;50.962;6.960;2022-12-24T07:58:45;10.70;99.90
35246;DHT22;21379;50.962;6.960;2022-12-24T08:01:11;10.80;99.90
35246;DHT22;21379;50.962;6.960;2022-12-24T08:03:38;10.70;99.90
35246;DHT22;21379;50.962;6.960;2022-12-24T08:06:05;10.70;99.90
35246;DHT22;21379;50.962;6.960;2022-12-24T08:08:34;10.80;99.90
35246;DHT22;21379;50.962;6.960;2022-12-24T08:11:02;10.70;99.90
35246;DHT22;21379;50.962;6.960;2022-12-24T08:13:29;10.70;99.90
35246;DHT22;21379;50.962;6.960;2022-12-24T08:15:56;10.80;99.90
35246;DHT22;21379;50.962;6.960;2022-12-24T08:18:23;10.80;99.90
35246;DHT22;21379;50.962;6.960;2022-12-24T08:20:51;10.90;99.90
35246;DHT22;21379;50.962;6.960;2022-12-24T08:23:18;10.90;99.90
35246;DHT22;21379;50.962;6.960;2022-12-24T08:25:47;11.00;99.90
35246;DHT22;21379;50.962;6.960;2022-12-24T08:28:16;11.00;99.90
35246;DHT22;21379;50.962;6.960;2022-12-24T08:30:43;10.90;99.90
35246;DHT22;21379;50.962;6.960;2022-12-24T08:33:10;10.90;99.90
35246;DHT22;21379;50.962;6.960;2022-12-24T08:35:37;10.90;99.90
35246;DHT22;21379;50.962;6.960;2022-12-24T08:38:04;11.00;99.90
35246;DHT22;21379;50.962;6.960;2022-12-24T08:40:31;11.00;99.90
35246;DHT22;21379;50.962;6.960;2022-12-24T08:43:00;11.10;99.90
35246;DHT22;21379;50.962;6.960;2022-12-24T08:45:27;11.20;99.90
35246;DHT22;21379;50.962;6.960;2022-12-24T08:47:54;11.20;99.90
35246;DHT22;21379;50.962;6.960;2022-12-24T08:50:20;11.20;99.90
35246;DHT22;21379;50.962;6.960;2022-12-24T08:52:47;11.20;99.90
35246;DHT22;21379;50.962;6.960;2022-12-24T08:55:14;11.20;99.90
35246;DHT22;21379;50.962;6.960;2022-12-24T08:57:41;11.20;99.90
35246;DHT22;21379;50.962;6.960;2022-12-24T09:00:12;11.20;99.90
35246;DHT22;21379;50.962;6.960;2022-12-24T09:02:39;11.20;99.90
35246;DHT22;21379;50.962;6.960;2022-12-24T09:05:06;11.20;99.90
35246;DHT22;21379;50.962;6.960;2022-12-24T09:07:33;11.20;99.90
35246;DHT22;21379;50.962;6.960;2022-12-24T09:10:00;11.20;99.90
35246;DHT22;21379;50.962;6.960;2022-12-24T09:12:27;11.20;99.90
35246;DHT22;21379;50.962;6.960;2022-12-24T09:14:54;11.20;99.90
35246;DHT22;21379;50.962;6.960;2022-12-24T09:17:22;11.20;99.90
35246;DHT22;21379;50.962;6.960;2022-12-24T09:19:49;11.10;99.90
35246;DHT22;21379;50.962;6.960;2022-12-24T09:22:16;11.10;99.90
35246;DHT22;21379;50.962;6.960;2022-12-24T09:24:43;11.10;99.90
35246;DHT22;21379;50.962;6.960;2022-12-24T09:27:09;11.10;99.90
35246;DHT22;21379;50.962;6.960;2022-12-24T09:29:36;11.00;99.90
35246;DHT22;21379;50.962;6.960;2022-12-24T09:32:05;11.10;99.90
35246;DHT22;21379;50.962;6.960;2022-12-24T09:34:33;11.20;99.90
35246;DHT22;21379;50.962;6.960;2022-12-24T09:37:00;11.20;99.90
35246;DHT22;21379;50.962;6.960;2022-12-24T09:39:27;11.20;99.90
35246;DHT22;21379;50.962;6.960;2022-12-24T09:41:59;11.20;99.90
35246;DHT22;21379;50.962;6.960;2022-12-24T09:44:36;11.30;99.90
35246;DHT22;21379;50.962;6.960;2022-12-24T09:47:10;11.30;99.90
35246;DHT22;21379;50.962;6.960;2022-12-24T09:49:42;11.30;99.90
35246;DHT22;21379;50.962;6.960;2022-12-24T09:52:14;11.30;99.90
35246;DHT22;21379;50.962;6.960;2022-12-24T09:54:44;11.30;99.90
35246;DHT22;21379;50.962;6.960;2022-12-24T09:57:19;11.40;99.90
35246;DHT22;21379;50.962;6.960;2022-12-24T09:59:50;11.40;99.90
35246;DHT22;21379;50.962;6.960;2022-12-24T10:02:18;11.50;99.90
35246;DHT22;21379;50.962;6.960;2022-12-24T10:04:47;11.50;99.90
35246;DHT22;21379;50.962;6.960;2022-12-24T10:07:25;11.50;99.90
35246;DHT22;21379;50.962;6.960;2022-12-24T10:10:00;11.50;99.90
35246;DHT22;21379;50.962;6.960;2022-12-24T10:12:35;11.50;99.90
35246;DHT22;21379;50.962;6.960;2022-12-24T10:15:09;11.50;99.90
35246;DHT22;21379;50.962;6.960;2022-12-24T10:17:56;11.50;99.90
35246;DHT22;21379;50.962;6.960;2022-12-24T10:20:38;11.50;99.90
35246;DHT22;21379;50.962;6.960;2022-12-24T10:23:16;11.50;99.90
35246;DHT22;21379;50.962;6.960;2022-12-24T10:25:49;11.50;99.90
35246;DHT22;21379;50.962;6.960;2022-12-24T10:28:21;11.50;99.90
35246;DHT22;21379;50.962;6.960;2022-12-24T10:30:52;11.60;99.90
35246;DHT22;21379;50.962;6.960;2022-12-24T10:33:27;11.60;99.90
35246;DHT22;21379;50.962;6.960;2022-12-24T10:35:57;11.70;99.90
35246;DHT22;21379;50.962;6.960;2022-12-24T10:38:24;11.80;99.90
35246;DHT22;21379;50.962;6.960;2022-12-24T10:40:53;11.80;99.90
35246;DHT22;21379;50.962;6.960;2022-12-24T10:43:23;11.80;99.90
35246;DHT22;21379;50.962;6.960;2022-12-24T10:45:54;11.80;99.90
35246;DHT22;21379;50.962;6.960;2022-12-24T10:48:24;11.80;99.90
35246;DHT22;21379;50.962;6.960;2022-12-24T10:51:01;11.90;99.90
35246;DHT22;21379;50.962;6.960;2022-12-24T10:53:37;11.90;99.90
35246;DHT22;21379;50.962;6.960;2022-12-24T10:56:05;11.90;99.90
35246;DHT22;21379;50.962;6.960;2022-12-24T10:58:33;11.90;99.90
35246;DHT22;21379;50.962;6.960;2022-12-24T11:01:01;11.90;99.90
35246;DHT22;21379;50.962;6.960;2022-12-24T11:03:31;11.90;99.90
35246;DHT22;21379;50.962;6.960;2022-12-24T11:06:03;11.90;99.90
35246;DHT22;21379;50.962;6.960;2022-12-24T11:08:30;11.80;99.90
35246;DHT22;21379;50.962;6.960;2022-12-24T11:11:00;11.90;99.90
35246;DHT22;21379;50.962;6.960;2022-12-24T11:13:29;11.90;99.90
35246;DHT22;21379;50.962;6.960;2022-12-24T11:16:02;11.90;99.90
35246;DHT22;21379;50.962;6.960;2022-12-24T11:18:31;12.00;99.90
35246;DHT22;21379;50.962;6.960;2022-12-24T11:21:00;12.20;99.90
35246;DHT22;21379;50.962;6.960;2022-12-24T11:23:27;12.30;99.90
35246;DHT22;21379;50.962;6.960;2022-12-24T11:25:55;12.20;99.90
35246;DHT22;21379;50.962;6.960;2022-12-24T11:28:24;12.20;99.90
35246;DHT22;21379;50.962;6.960;2022-12-24T11:31:03;12.30;99.90
35246;DHT22;21379;50.962;6.960;2022-12-24T11:33:31;12.30;99.90
35246;DHT22;21379;50.962;6.960;2022-12-24T11:36:12;12.30;99.90
35246;DHT22;21379;50.962;6.960;2022-12-24T11:38:39;12.30;99.90
35246;DHT22;21379;50.962;6.960;2022-12-24T11:41:09;12.30;99.90
35246;DHT22;21379;50.962;6.960;2022-12-24T11:43:42;12.40;99.90
35246;DHT22;21379;50.962;6.960;2022-12-24T11:46:16;12.50;99.90
35246;DHT22;21379;50.962;6.960;2022-12-24T11:48:43;12.70;99.90
35246;DHT22;21379;50.962;6.960;2022-12-24T11:51:23;12.80;99.90
35246;DHT22;21379;50.962;6.960;2022-12-24T11:53:56;12.90;99.90
35246;DHT22;21379;50.962;6.960;2022-12-24T11:56:30;12.90;99.90
35246;DHT22;21379;50.962;6.960;2022-12-24T11:59:01;12.80;99.90
35246;DHT22;21379;50.962;6.960;2022-12-24T12:01:33;12.70;99.90
35246;DHT22;21379;50.962;6.960;2022-12-24T12:04:03;12.80;99.90
35246;DHT22;21379;50.962;6.960;2022-12-24T12:06:36;12.80;99.90
35246;DHT22;21379;50.962;6.960;2022-12-24T12:09:06;12.70;99.90
35246;DHT22;21379;50.962;6.960;2022-12-24T12:11:38;12.60;99.90
35246;DHT22;21379;50.962;6.960;2022-12-24T12:14:08;12.70;99.90
35246;DHT22;21379;50.962;6.960;2022-12-24T12:16:44;12.80;99.90
35246;DHT22;21379;50.962;6.960;2022-12-24T12:19:34;12.80;99.90
35246;DHT22;21379;50.962;6.960;2022-12-24T12:22:06;13.00;99.90
35246;DHT22;21379;50.962;6.960;2022-12-24T12:24:35;12.90;99.90
35246;DHT22;21379;50.962;6.960;2022-12-24T12:27:10;13.00;99.90
35246;DHT22;21379;50.962;6.960;2022-12-24T12:29:43;13.00;99.90
35246;DHT22;21379;50.962;6.960;2022-12-24T12:32:15;13.00;99.90
35246;DHT22;21379;50.962;6.960;2022-12-24T12:34:55;13.00;99.90
35246;DHT22;21379;50.962;6.960;2022-12-24T12:37:30;13.00;99.90
35246;DHT22;21379;50.962;6.960;2022-12-24T12:39:59;12.90;99.90
35246;DHT22;21379;50.962;6.960;2022-12-24T12:42:29;12.90;99.90
35246;DHT22;21379;50.962;6.960;2022-12-24T12:45:14;12.80;99.90
35246;DHT22;21379;50.962;6.960;2022-12-24T12:47:55;12.80;99.90
35246;DHT22;21379;50.962;6.960;2022-12-24T12:50:30;12.80;99.90
35246;DHT22;21379;50.962;6.960;2022-12-24T12:53:25;12.80;99.90
35246;DHT22;21379;50.962;6.960;2022-12-24T12:55:59;12.90;99.90
35246;DHT22;21379;50.962;6.960;2022-12-24T12:58:35;13.00;99.90
35246;DHT22;21379;50.962;6.960;2022-12-24T13:01:07;12.90;99.90
35246;DHT22;21379;50.962;6.960;2022-12-24T13:06:49;12.80;99.90
35246;DHT22;21379;50.962;6.960;2022-12-24T13:09:51;12.80;99.90
35246;DHT22;21379;50.962;6.960;2022-12-24T13:15:51;12.70;99.90
35246;DHT22;21379;50.962;6.960;2022-12-24T13:18:47;12.80;99.90
35246;DHT22;21379;50.962;6.960;2022-12-24T13:21:20;12.80;99.90
35246;DHT22;21379;50.962;6.960;2022-12-24T13:23:48;12.80;99.90
35246;DHT22;21379;50.962;6.960;2022-12-24T13:26:17;12.80;99.90
35246;DHT22;21379;50.962;6.960;2022-12-24T13:28:44;12.80;99.90
35246;DHT22;21379;50.962;6.960;2022-12-24T13:31:26;12.70;99.90
35246;DHT22;21379;50.962;6.960;2022-12-24T13:33:58;12.70;99.90
35246;DHT22;21379;50.962;6.960;2022-12-24T13:37:03;12.70;99.90
35246;DHT22;21379;50.962;6.960;2022-12-24T13:40:00;12.60;99.90
35246;DHT22;21379;50.962;6.960;2022-12-24T13:42:48;12.50;99.90
35246;DHT22;21379;50.962;6.960;2022-12-24T13:45:43;12.50;99.90
35246;DHT22;21379;50.962;6.960;2022-12-24T13:48:29;12.50;99.90
35246;DHT22;21379;50.962;6.960;2022-12-24T13:50:58;12.50;99.90
35246;DHT22;21379;50.962;6.960;2022-12-24T13:53:30;12.40;99.90
35246;DHT22;21379;50.962;6.960;2022-12-24T13:56:04;12.40;99.90
35246;DHT22;21379;50.962;6.960;2022-12-24T13:58:33;12.30;99.90
35246;DHT22;21379;50.962;6.960;2022-12-24T14:01:01;12.30;99.90
35246;DHT22;21379;50.962;6.960;2022-12-24T14:03:30;12.30;99.90
35246;DHT22;21379;50.962;6.960;2022-12-24T14:06:00;12.30;99.90
35246;DHT22;21379;50.962;6.960;2022-12-24T14:08:34;12.30;99.90
35246;DHT22;21379;50.962;6.960;2022-12-24T14:11:05;12.20;99.90
35246;DHT22;21379;50.962;6.960;2022-12-24T14:13:53;12.20;99.90
35246;DHT22;21379;50.962;6.960;2022-12-24T14:16:21;12.20;99.90
35246;DHT22;21379;50.962;6.960;2022-12-24T14:18:57;12.20;99.90
35246;DHT22;21379;50.962;6.960;2022-12-24T14:21:27;12.20;99.90
35246;DHT22;21379;50.962;6.960;2022-12-24T14:23:58;12.30;99.90
35246;DHT22;21379;50.962;6.960;2022-12-24T14:26:29;12.30;99.90
35246;DHT22;21379;50.962;6.960;2022-12-24T14:29:02;12.20;99.90
35246;DHT22;21379;50.962;6.960;2022-12-24T14:31:30;12.10;99.90
35246;DHT22;21379;50.962;6.960;2022-12-24T14:34:07;12.00;99.90
35246;DHT22;21379;50.962;6.960;2022-12-24T14:36:34;11.90;99.90
35246;DHT22;21379;50.962;6.960;2022-12-24T14:39:05;11.80;99.90
35246;DHT22;21379;50.962;6.960;2022-12-24T14:41:39;11.80;99.90
35246;DHT22;21379;50.962;6.960;2022-12-24T14:44:18;11.70;99.90
35246;DHT22;21379;50.962;6.960;2022-12-24T14:46:51;11.70;99.90
35246;DHT22;21379;50.962;6.960;2022-12-24T14:49:31;11.70;99.90
35246;DHT22;21379;50.962;6.960;2022-12-24T14:52:11;11.70;99.90
35246;DHT22;21379;50.962;6.960;2022-12-24T14:54:43;11.60;99.90
35246;DHT22;21379;50.962;6.960;2022-12-24T14:57:18;11.60;99.90
35246;DHT22;21379;50.962;6.960;2022-12-24T14:59:48;11.60;99.90
35246;DHT22;21379;50.962;6.960;2022-12-24T15:02:41;11.50;99.90
35246;DHT22;21379;50.962;6.960;2022-12-24T15:05:11;11.30;99.90
35246;DHT22;21379;50.962;6.960;2022-12-24T15:07:42;11.30;99.90
35246;DHT22;21379;50.962;6.960;2022-12-24T15:10:25;11.40;99.90
35246;DHT22;21379;50.962;6.960;2022-12-24T15:12:54;11.30;99.90
35246;DHT22;21379;50.962;6.960;2022-12-24T15:15:22;11.10;99.90
35246;DHT22;21379;50.962;6.960;2022-12-24T15:17:49;11.00;99.90
35246;DHT22;21379;50.962;6.960;2022-12-24T15:20:19;10.80;99.90
35246;DHT22;21379;50.962;6.960;2022-12-24T15:22:50;10.70;99.90
35246;DHT22;21379;50.962;6.960;2022-12-24T15:25:20;10.60;99.90
35246;DHT22;21379;50.962;6.960;2022-12-24T15:27:49;10.50;99.90
35246;DHT22;21379;50.962;6.960;2022-12-24T15:30:19;10.50;99.90
35246;DHT22;21379;50.962;6.960;2022-12-24T15:32:46;10.50;99.90
35246;DHT22;21379;50.962;6.960;2022-12-24T15:38:25;10.30;99.90
35246;DHT22;21379;50.962;6.960;2022-12-24T15:40:55;10.30;99.90
35246;DHT22;21379;50.962;6.960;2022-12-24T15:43:24;10.20;99.90
35246;DHT22;21379;50.962;6.960;2022-12-24T15:45:52;10.10;99.90
35246;DHT22;21379;50.962;6.960;2022-12-24T15:48:21;10.10;99.90
35246;DHT22;21379;50.962;6.960;2022-12-24T15:50:50;10.00;99.90
35246;DHT22;21379;50.962;6.960;2022-12-24T15:53:23;10.00;99.90
35246;DHT22;21379;50.962;6.960;2022-12-24T15:56:06;10.00;99.90
35246;DHT22;21379;50.962;6.960;2022-12-24T15:58:37;10.00;99.90
35246;DHT22;21379;50.962;6.960;2022-12-24T16:01:25;9.90;99.90
35246;DHT22;21379;50.962;6.960;2022-12-24T16:03:56;9.80;99.90
35246;DHT22;21379;50.962;6.960;2022-12-24T16:06:23;9.80;99.90
35246;DHT22;21379;50.962;6.960;2022-12-24T16:08:50;9.70;99.90